Time;durP1;ratioP1;P1;durP2;ratioP2;P2;SDS_P1;SDS_P2;PMS_P1;PMS_P2;Temp;Humidity;BMP_temperature;BMP_pressure;BME280_temperature;BME280_humidity;BME280_pressure;Samples;Min_cycle;Max_cycle;Signal;HPM_P1;HPM_P2
2023/02/02 00:02:23;;;;;;;23.10;18.30;;;;;;;4.85;57.57;101221.69;107117;1269;24251;-59
2023/02/02 00:04:51;;;;;;;24.90;19.10;;;;;;;4.86;57.53;101214.64;106856;1267;23338;-61
2023/02/02 00:07:20;;;;;;;25.20;18.50;;;;;;;4.86;57.39;101214.48;105953;1271;1016157;-59
2023/02/02 00:09:48;;;;;;;20.90;16.90;;;;;;;4.85;57.21;101213.44;106635;1272;24268;-60
2023/02/02 00:12:16;;;;;;;23.10;18.20;;;;;;;4.86;57.26;101223.23;105994;1267;1003097;-59
2023/02/02 00:14:45;;;;;;;22.20;17.20;;;;;;;4.85;57.27;101229.25;106921;1272;25425;-60
2023/02/02 00:17:14;;;;;;;23.50;17.80;;;;;;;4.88;57.17;101230.30;106294;1271;1002505;-59
2023/02/02 00:19:44;;;;;;;25.10;18.80;;;;;;;4.90;57.25;101225.51;106147;1271;1015253;-59
2023/02/02 00:22:14;;;;;;;22.70;18.10;;;;;;;4.91;57.28;101227.93;107073;1269;22521;-59
2023/02/02 00:24:42;;;;;;;25.40;19.40;;;;;;;4.92;57.22;101237.04;106775;1275;26512;-60
2023/02/02 00:27:11;;;;;;;27.50;19.70;;;;;;;4.90;57.26;101229.48;107059;1271;25480;-59
2023/02/02 00:29:40;;;;;;;25.00;19.40;;;;;;;4.86;56.93;101229.09;107108;1271;22548;-59
2023/02/02 00:32:09;;;;;;;23.20;18.90;;;;;;;4.78;57.00;101231.25;107035;1269;25373;-59
2023/02/02 00:34:40;;;;;;;24.00;19.40;;;;;;;4.66;57.15;101229.59;106817;1272;23272;-59
2023/02/02 00:37:08;;;;;;;24.20;19.10;;;;;;;4.59;57.60;101224.01;106932;1268;25459;-59
2023/02/02 00:39:37;;;;;;;24.90;20.10;;;;;;;4.58;57.80;101222.30;107066;1269;25422;-59
2023/02/02 00:42:05;;;;;;;26.70;20.50;;;;;;;4.61;57.65;101218.89;106262;1272;1002961;-58
2023/02/02 00:47:21;;;;;;;27.40;20.10;;;;;;;4.66;57.55;101213.09;106340;1269;1003802;-58
2023/02/02 00:49:50;;;;;;;27.20;20.10;;;;;;;4.66;57.90;101205.01;106080;1270;1002833;-58
2023/02/02 00:52:18;;;;;;;26.40;19.80;;;;;;;4.66;58.01;101211.20;107049;1271;22521;-58
2023/02/02 00:54:47;;;;;;;24.90;19.10;;;;;;;4.67;58.02;101204.34;107003;1269;25352;-58
2023/02/02 00:57:15;;;;;;;26.60;19.40;;;;;;;4.70;58.12;101195.77;106669;1275;25606;-58
2023/02/02 00:59:44;;;;;;;27.60;19.90;;;;;;;4.74;58.05;101197.02;107137;1269;25376;-58
2023/02/02 01:02:12;;;;;;;26.20;20.10;;;;;;;4.76;57.91;101197.03;106306;1269;1003628;-58
2023/02/02 01:04:41;;;;;;;25.10;20.00;;;;;;;4.75;57.91;101192.21;106780;1269;22650;-58
2023/02/02 01:07:10;;;;;;;26.00;20.50;;;;;;;4.74;57.92;101192.89;106161;1269;1003444;-58
2023/02/02 01:09:38;;;;;;;27.90;20.20;;;;;;;4.71;57.91;101198.35;106773;1275;25362;-58
2023/02/02 01:12:09;;;;;;;25.10;20.20;;;;;;;4.69;57.93;101204.17;107045;1269;25342;-58
2023/02/02 01:14:38;;;;;;;24.30;19.00;;;;;;;4.68;57.92;101206.41;106815;1260;25241;-58
2023/02/02 01:17:06;;;;;;;27.50;20.50;;;;;;;4.67;57.89;101207.95;107041;1269;22511;-58
2023/02/02 01:19:35;;;;;;;24.30;19.10;;;;;;;4.68;57.74;101210.88;107079;1268;25350;-59
2023/02/02 01:22:04;;;;;;;24.00;19.00;;;;;;;4.68;57.68;101209.33;106818;1268;24200;-59
2023/02/02 01:24:32;;;;;;;27.30;19.90;;;;;;;4.67;57.65;101212.92;106944;1271;24267;-58
2023/02/02 01:27:01;;;;;;;25.80;20.20;;;;;;;4.63;57.75;101225.10;106225;1271;1003758;-58
2023/02/02 01:29:32;;;;;;;26.50;20.30;;;;;;;4.57;57.71;101223.66;107054;1269;25373;-58
2023/02/02 01:32:00;;;;;;;24.20;19.50;;;;;;;4.53;57.93;101221.05;106376;1271;1002890;-58
2023/02/02 01:34:29;;;;;;;27.00;19.80;;;;;;;4.51;57.98;101214.67;106296;1269;1002867;-58
2023/02/02 01:36:57;;;;;;;25.60;19.90;;;;;;;4.51;58.06;101212.09;107077;1268;25357;-59
2023/02/02 01:39:26;;;;;;;25.40;19.00;;;;;;;4.51;57.90;101210.89;106957;1269;25348;-59
2023/02/02 01:41:56;;;;;;;25.00;19.40;;;;;;;4.51;57.91;101205.21;107101;1268;25304;-58
2023/02/02 01:45:09;;;;;;;26.20;20.60;;;;;;;4.49;57.92;101203.46;107080;1268;24355;-59
2023/02/02 01:47:51;;;;;;;28.70;21.70;;;;;;;4.45;57.93;101201.02;107038;1269;25324;-58
2023/02/02 01:50:22;;;;;;;24.90;20.00;;;;;;;4.42;57.95;101197.90;106912;1271;25511;-58
2023/02/02 01:52:50;;;;;;;25.50;20.10;;;;;;;4.40;58.00;101193.75;106908;1270;25240;-59
2023/02/02 01:55:20;;;;;;;27.10;20.00;;;;;;;4.39;58.14;101202.51;106334;1268;1003374;-58
2023/02/02 01:58:01;;;;;;;26.40;20.00;;;;;;;4.40;58.25;101195.13;106847;1268;24314;-59
2023/02/02 02:00:30;;;;;;;28.50;20.10;;;;;;;4.40;58.43;101183.29;107054;1257;25417;-59
2023/02/02 02:03:11;;;;;;;24.80;20.00;;;;;;;4.40;58.15;101179.34;106798;1275;22781;-58
2023/02/02 02:05:41;;;;;;;;;;;;;;;4.38;58.01;101182.23;106807;1271;26604;-58
2023/02/02 02:08:22;;;;;;;25.70;19.60;;;;;;;4.35;58.18;101182.89;106695;1275;25349;-58
2023/02/02 02:10:51;;;;;;;26.00;19.30;;;;;;;4.33;58.61;101184.75;106613;1268;22520;-58
2023/02/02 02:13:21;;;;;;;24.80;19.20;;;;;;;4.32;58.65;101182.69;106366;1268;22525;-59
2023/02/02 02:16:20;;;;;;;24.50;19.00;;;;;;;4.34;58.62;101182.53;105931;1271;1003033;-58
2023/02/02 02:19:01;;;;;;;23.00;18.10;;;;;;;4.35;58.36;101180.14;106355;1271;22532;-58
2023/02/02 02:27:54;;;;;;;27.10;20.50;;;;;;;4.28;58.14;101178.52;106380;1278;24256;-58
2023/02/02 02:30:23;;;;;;;25.70;20.10;;;;;;;4.24;58.23;101180.20;106834;1270;22600;-59
2023/02/02 02:33:03;;;;;;;24.60;19.00;;;;;;;4.21;58.26;101174.34;106782;1275;25406;-58
2023/02/02 02:35:40;;;;;;;26.10;19.90;;;;;;;4.21;58.33;101168.65;106748;1273;24262;-58
2023/02/02 02:38:27;;;;;;;23.80;19.10;;;;;;;4.21;58.31;101174.48;106793;1275;22643;-58
2023/02/02 02:40:59;;;;;;;24.70;18.60;;;;;;;4.20;58.22;101186.52;106777;1270;25366;-59
2023/02/02 02:43:29;;;;;;;;;;;;;;;4.19;58.19;101187.87;106803;1271;25317;-59
2023/02/02 02:45:58;;;;;;;24.30;18.00;;;;;;;4.16;58.21;101191.98;105787;1274;1004001;-59
2023/02/02 02:48:28;;;;;;;26.10;19.00;;;;;;;4.12;58.22;101192.45;106480;1274;25553;-59
2023/02/02 02:51:28;;;;;;;26.70;20.80;;;;;;;4.08;58.22;101196.00;106567;1273;22551;-59
2023/02/02 02:53:57;;;;;;;25.70;19.50;;;;;;;4.04;58.37;101194.41;106816;1271;25523;-59
2023/02/02 02:56:34;;;;;;;23.60;18.20;;;;;;;4.03;58.38;101196.61;105737;1278;1003673;-59
2023/02/02 02:59:43;;;;;;;23.00;18.20;;;;;;;4.03;58.40;101198.34;106722;1273;25358;-59
2023/02/02 03:02:15;;;;;;;23.00;17.70;;;;;;;4.04;58.42;101198.67;106257;1277;25468;-59
2023/02/02 03:04:55;;;;;;;25.30;18.90;;;;;;;4.03;58.32;101190.94;106296;1277;22540;-59
2023/02/02 03:07:27;;;;;;;25.70;18.50;;;;;;;4.02;58.40;101196.43;106230;1271;26516;-58
2023/02/02 03:09:56;;;;;;;23.50;18.40;;;;;;;4.00;58.40;101196.41;106271;1282;25507;-58
2023/02/02 03:12:24;;;;;;;24.70;18.60;;;;;;;3.98;58.31;101197.93;106245;1280;25376;-59
2023/02/02 03:14:53;;;;;;;23.30;17.50;;;;;;;3.99;58.59;101200.52;106133;1285;25352;-59
2023/02/02 03:17:21;;;;;;;23.80;17.70;;;;;;;3.99;58.50;101204.64;105610;1278;1003295;-58
2023/02/02 03:19:50;;;;;;;27.40;19.40;;;;;;;4.00;58.74;101202.93;106248;1278;25369;-59
2023/02/02 03:22:18;;;;;;;23.50;18.70;;;;;;;4.02;58.60;101198.66;106259;1280;25422;-59
2023/02/02 03:24:47;;;;;;;24.70;18.50;;;;;;;4.01;58.60;101204.65;105524;1278;1002564;-59
2023/02/02 03:27:15;;;;;;;23.50;19.10;;;;;;;3.99;58.23;101207.88;106526;1275;25359;-59
2023/02/02 03:29:44;;;;;;;23.10;18.60;;;;;;;3.96;58.18;101200.83;106195;1275;1003077;-59
2023/02/02 03:32:12;;;;;;;25.40;19.80;;;;;;;3.94;58.36;101198.39;106490;1279;25344;-59
2023/02/02 03:34:41;;;;;;;22.30;17.80;;;;;;;3.93;58.75;101200.45;106503;1275;25368;-59
2023/02/02 03:37:09;;;;;;;26.10;19.40;;;;;;;3.93;58.47;101200.28;105807;1276;1003006;-59
2023/02/02 03:39:38;;;;;;;24.40;18.30;;;;;;;3.94;58.44;101203.54;106908;1271;25377;-59
2023/02/02 03:42:07;;;;;;;22.70;18.30;;;;;;;3.93;58.30;101202.66;107123;1269;24364;-59
2023/02/02 03:44:36;;;;;;;26.20;18.90;;;;;;;3.90;58.22;101201.78;106836;1268;25345;-59
2023/02/02 03:47:04;;;;;;;24.40;19.40;;;;;;;3.85;58.25;101202.92;107012;1269;25358;-59
2023/02/02 03:49:33;;;;;;;26.10;19.60;;;;;;;3.81;58.43;101208.19;106941;1270;25401;-59
2023/02/02 03:52:03;;;;;;;26.90;20.40;;;;;;;3.78;58.55;101213.45;106306;1272;1003464;-59
2023/02/02 03:54:32;;;;;;;22.90;17.90;;;;;;;3.76;59.00;101209.15;106076;1270;1002504;-58
2023/02/02 03:57:00;;;;;;;25.00;18.10;;;;;;;3.77;59.04;101208.14;106982;1270;25354;-59
2023/02/02 03:59:29;;;;;;;24.30;19.50;;;;;;;3.78;59.01;101206.59;106092;1272;1003587;-59
2023/02/02 04:01:58;;;;;;;24.10;19.20;;;;;;;3.78;58.87;101205.39;106703;1272;25371;-59
2023/02/02 04:04:26;;;;;;;26.10;19.80;;;;;;;3.76;58.69;101209.33;106740;1271;25477;-58
2023/02/02 04:06:57;;;;;;;24.10;19.80;;;;;;;3.74;58.71;101208.77;106776;1275;22550;-59
2023/02/02 04:09:26;;;;;;;28.60;21.30;;;;;;;3.72;58.66;101211.15;106644;1273;22526;-58
2023/02/02 04:11:55;;;;;;;26.00;18.70;;;;;;;3.71;58.95;101211.15;105973;1272;1003053;-58
2023/02/02 04:14:24;;;;;;;25.60;19.30;;;;;;;3.71;59.08;101209.61;106712;1273;25337;-58
2023/02/02 04:16:52;;;;;;;24.20;17.90;;;;;;;3.71;58.40;101208.23;107023;1271;25334;-58
2023/02/02 04:19:23;;;;;;;28.20;19.30;;;;;;;3.70;58.30;101205.98;107112;1268;25358;-58
2023/02/02 04:21:52;;;;;;;24.50;18.40;;;;;;;3.67;58.26;101204.75;106974;1271;25561;-59
2023/02/02 04:24:20;;;;;;;25.40;18.40;;;;;;;3.64;58.46;101207.44;106827;1269;25397;-58
2023/02/02 04:26:49;;;;;;;28.10;18.70;;;;;;;3.61;58.48;101209.45;107041;1269;25335;-59
2023/02/02 04:29:18;;;;;;;24.50;18.60;;;;;;;3.58;58.75;101218.35;106802;1272;23308;-60
2023/02/02 04:31:46;;;;;;;23.60;18.80;;;;;;;3.57;58.93;101234.10;106947;1275;23885;-59
2023/02/02 04:34:15;;;;;;;21.80;17.50;;;;;;;3.58;58.93;101237.89;106973;1268;25491;-58
2023/02/02 04:36:43;;;;;;;23.10;17.80;;;;;;;3.60;59.14;101239.80;107013;1270;25349;-58
2023/02/02 04:39:12;;;;;;;21.90;16.40;;;;;;;3.60;59.10;101240.50;107202;1268;25499;-59
2023/02/02 04:41:41;;;;;;;21.70;16.80;;;;;;;3.60;59.05;101236.89;106184;1268;1003003;-59
2023/02/02 04:44:17;;;;;;;22.60;18.20;;;;;;;3.59;59.48;101238.94;106735;1275;25348;-60
2023/02/02 04:46:48;;;;;;;25.70;17.80;;;;;;;3.59;59.55;101238.41;106928;1261;25414;-60
2023/02/02 04:49:17;;;;;;;23.30;18.20;;;;;;;3.59;59.86;101232.59;107046;1270;25466;-58
2023/02/02 04:51:45;;;;;;;24.50;18.00;;;;;;;3.62;60.02;101233.83;106914;1269;22531;-59
2023/02/02 04:54:17;;;;;;;25.00;18.90;;;;;;;3.65;59.90;101229.06;106298;1268;1003388;-58
2023/02/02 04:56:46;;;;;;;24.70;19.20;;;;;;;3.66;59.90;101228.76;107021;1269;22524;-59
2023/02/02 04:59:14;;;;;;;27.20;20.10;;;;;;;3.65;59.99;101230.10;106832;1273;25351;-59
2023/02/02 05:01:43;;;;;;;25.90;19.50;;;;;;;3.64;59.98;101228.02;106787;1274;25345;-58
2023/02/02 05:04:12;;;;;;;25.80;20.20;;;;;;;3.64;60.17;101228.02;106942;1270;25530;-58
2023/02/02 05:06:40;;;;;;;25.70;19.10;;;;;;;3.63;60.38;101226.47;106326;1270;1003176;-59
2023/02/02 05:09:09;;;;;;;25.70;19.80;;;;;;;3.65;60.47;101226.16;106986;1273;25352;-58
2023/02/02 05:11:39;;;;;;;24.50;18.40;;;;;;;3.67;60.30;101231.84;106050;1269;1003506;-58
2023/02/02 05:14:08;;;;;;;24.60;18.00;;;;;;;3.66;60.18;101231.33;106866;1271;22526;-58
2023/02/02 05:16:38;;;;;;;23.50;18.30;;;;;;;3.65;60.13;101233.53;107072;1270;25350;-59
2023/02/02 05:19:09;;;;;;;27.50;18.80;;;;;;;3.64;60.22;101234.36;106064;1265;1003509;-58
2023/02/02 05:21:37;;;;;;;24.50;18.60;;;;;;;3.63;60.27;101231.95;106287;1270;1003557;-59
2023/02/02 05:24:06;;;;;;;25.00;18.50;;;;;;;3.62;60.23;101230.39;107030;1270;22525;-59
2023/02/02 05:26:34;;;;;;;23.00;16.90;;;;;;;3.62;60.14;101234.35;106977;1273;25440;-60
2023/02/02 05:29:03;;;;;;;25.20;17.90;;;;;;;3.63;60.16;101227.50;106717;1275;22628;-58
2023/02/02 05:31:32;;;;;;;22.90;18.20;;;;;;;3.64;59.97;101231.27;107088;1265;25348;-58
2023/02/02 05:34:00;;;;;;;22.00;17.40;;;;;;;3.64;59.67;101232.14;106938;1270;22538;-59
2023/02/02 05:36:29;;;;;;;19.90;16.20;;;;;;;3.63;59.70;101233.33;106066;1268;1003696;-59
2023/02/02 05:38:59;;;;;;;25.00;16.50;;;;;;;3.62;59.67;101235.02;106665;1270;23210;-59
2023/02/02 05:41:28;;;;;;;19.80;16.00;;;;;;;3.61;59.66;101230.39;106027;1270;1003828;-59
2023/02/02 05:44:00;;;;;;;21.80;16.80;;;;;;;3.62;59.44;101234.52;106626;1276;22571;-58
2023/02/02 05:46:29;;;;;;;20.50;15.20;;;;;;;3.62;59.62;101231.09;106006;1274;1003608;-58
2023/02/02 05:48:58;;;;;;;19.90;16.20;;;;;;;3.63;59.40;101237.61;106840;1273;24292;-58
2023/02/02 05:51:32;;;;;;;20.20;15.50;;;;;;;3.62;59.24;101238.13;105912;1274;1002970;-58
2023/02/02 05:54:01;;;;;;;20.00;15.90;;;;;;;3.61;59.23;101240.67;106781;1271;25377;-58
2023/02/02 05:56:29;;;;;;;20.10;16.20;;;;;;;3.59;59.51;101245.95;106772;1270;25423;-58
2023/02/02 05:58:58;;;;;;;20.00;15.30;;;;;;;3.61;60.06;101245.30;106802;1271;25390;-59
2023/02/02 06:01:27;;;;;;;18.50;15.20;;;;;;;3.70;60.59;101243.55;106798;1270;25370;-58
2023/02/02 06:03:56;;;;;;;19.80;16.10;;;;;;;3.85;60.35;101240.16;106537;1269;25360;-58
2023/02/02 06:06:24;;;;;;;21.00;15.70;;;;;;;4.02;60.05;101240.38;106510;1270;22774;-58
2023/02/02 06:08:53;;;;;;;20.20;15.80;;;;;;;4.17;59.74;101236.79;106284;1277;25406;-58
2023/02/02 06:11:22;;;;;;;20.90;16.30;;;;;;;4.28;59.11;101236.39;106517;1270;25396;-58
2023/02/02 06:13:50;;;;;;;18.40;15.80;;;;;;;4.35;58.84;101245.06;105858;1273;1003189;-58
2023/02/02 06:16:19;;;;;;;23.00;16.80;;;;;;;4.40;58.64;101243.75;106738;1270;25334;-58
2023/02/02 06:18:47;;;;;;;19.60;16.40;;;;;;;4.46;58.40;101242.26;106810;1270;25380;-58
2023/02/02 06:21:18;;;;;;;21.50;16.70;;;;;;;4.53;58.61;101244.58;106757;1270;25356;-58
2023/02/02 06:23:47;;;;;;;19.00;15.40;;;;;;;4.63;58.47;101243.84;106837;1274;22528;-58
2023/02/02 06:26:15;;;;;;;21.30;16.60;;;;;;;4.75;58.38;101250.64;106837;1270;22533;-58
2023/02/02 06:28:47;;;;;;;17.60;13.30;;;;;;;4.86;58.13;101250.57;106810;1271;25359;-57
2023/02/02 06:31:19;;;;;;;;;;;;;;;4.96;57.86;101250.50;106888;1270;24250;-58
2023/02/02 06:33:52;;;;;;;17.60;13.80;;;;;;;4.98;57.46;101251.20;106932;1270;25537;-58
2023/02/02 06:36:21;;;;;;;17.80;13.50;;;;;;;5.08;57.31;101252.14;106883;1270;25410;-58
2023/02/02 06:38:53;;;;;;;15.50;13.20;;;;;;;5.15;57.40;101257.18;106052;1269;1003681;-59
2023/02/02 06:41:21;;;;;;;16.10;12.60;;;;;;;5.22;56.85;101258.80;106953;1272;22511;-57
2023/02/02 06:43:50;;;;;;;14.90;11.30;;;;;;;5.27;56.69;101256.08;107012;1270;24389;-57
2023/02/02 06:46:19;;;;;;;14.30;11.60;;;;;;;5.32;56.43;101255.42;106846;1269;25334;-58
2023/02/02 06:48:47;;;;;;;14.60;12.10;;;;;;;5.35;56.12;101254.77;107068;1270;22540;-58
2023/02/02 06:51:16;;;;;;;14.80;12.60;;;;;;;5.40;56.05;101255.67;106863;1270;25680;-58
2023/02/02 06:53:47;;;;;;;14.90;11.30;;;;;;;5.44;55.96;101253.13;106009;1271;1002880;-58
2023/02/02 06:56:15;;;;;;;14.20;10.80;;;;;;;5.47;55.79;101253.14;106814;1272;24719;-58
2023/02/02 06:58:44;;;;;;;12.20;10.30;;;;;;;5.47;55.52;101256.23;106770;1270;25535;-58
2023/02/02 07:01:13;;;;;;;13.80;11.00;;;;;;;5.44;55.36;101260.34;106999;1270;22568;-58
2023/02/02 07:03:42;;;;;;;11.90;9.80;;;;;;;5.39;55.44;101263.41;107072;1271;22532;-58
2023/02/02 07:06:24;;;;;;;12.20;10.50;;;;;;;5.34;55.40;101268.16;106984;1269;22549;-58
2023/02/02 07:08:53;;;;;;;10.80;9.60;;;;;;;5.29;55.50;101268.84;106797;1274;25334;-58
2023/02/02 07:11:31;;;;;;;12.10;9.60;;;;;;;5.27;56.03;101265.88;106962;1268;22536;-58
2023/02/02 07:14:05;;;;;;;10.50;8.90;;;;;;;5.29;56.14;101265.38;106930;1269;25337;-58
2023/02/02 07:16:34;;;;;;;10.40;8.10;;;;;;;5.32;56.22;101266.95;107073;1270;25368;-58
2023/02/02 07:19:02;;;;;;;11.50;9.10;;;;;;;5.37;56.22;101266.48;106071;1270;1003066;-58
2023/02/02 07:21:34;;;;;;;11.30;8.80;;;;;;;5.42;56.28;101269.10;107039;1269;24006;-58
2023/02/02 07:24:04;;;;;;;12.50;9.10;;;;;;;5.48;56.15;101269.49;106754;1269;23201;-59
2023/02/02 07:26:34;;;;;;;10.50;8.70;;;;;;;5.54;55.69;101269.36;105988;1274;1003015;-58
2023/02/02 07:29:03;;;;;;;12.00;9.40;;;;;;;5.60;55.57;101268.18;106938;1271;22557;-58
2023/02/02 07:31:33;;;;;;;11.40;9.40;;;;;;;5.64;55.47;101267.36;107019;1268;25470;-58
2023/02/02 07:34:04;;;;;;;10.50;8.50;;;;;;;5.68;55.44;101273.58;106818;1269;25401;-58
2023/02/02 07:36:33;;;;;;;9.60;7.70;;;;;;;5.71;55.33;101268.42;106850;1268;25386;-58
2023/02/02 07:39:03;;;;;;;9.30;7.60;;;;;;;5.75;55.47;101273.11;106867;1269;25363;-58
2023/02/02 07:41:33;;;;;;;8.80;7.70;;;;;;;5.81;55.36;101275.05;107060;1268;24273;-59
2023/02/02 07:44:03;;;;;;;9.80;6.70;;;;;;;5.88;55.25;101273.73;106992;1273;24375;-58
2023/02/02 07:46:31;;;;;;;10.10;7.50;;;;;;;5.94;55.09;101276.35;106820;1275;24347;-58
2023/02/02 07:49:00;;;;;;;8.40;6.90;;;;;;;5.99;54.97;101276.90;107029;1270;25564;-58
2023/02/02 07:51:28;;;;;;;8.50;7.30;;;;;;;6.04;54.80;101281.91;106250;1268;1003667;-58
2023/02/02 07:53:58;;;;;;;8.70;7.00;;;;;;;6.07;54.70;101279.52;107046;1271;25348;-58
2023/02/02 07:56:27;;;;;;;10.50;7.60;;;;;;;6.08;54.72;101277.45;107044;1270;22645;-58
2023/02/02 07:58:55;;;;;;;7.80;6.70;;;;;;;6.11;55.00;101274.54;106778;1270;25482;-58
2023/02/02 08:01:24;;;;;;;8.20;6.60;;;;;;;6.15;55.16;101275.77;106560;1270;25296;-58
2023/02/02 08:03:54;;;;;;;7.50;6.20;;;;;;;6.19;55.10;101273.71;106624;1270;25455;-58
2023/02/02 08:06:23;;;;;;;7.60;6.20;;;;;;;6.25;55.04;101276.85;106694;1269;25266;-58
2023/02/02 08:08:51;;;;;;;8.10;6.30;;;;;;;6.32;54.96;101280.33;106792;1271;24269;-58
2023/02/02 08:11:22;;;;;;;6.20;5.40;;;;;;;6.39;54.74;101282.24;106764;1271;25416;-58
2023/02/02 08:13:52;;;;;;;8.60;6.50;;;;;;;6.44;54.46;101280.70;106782;1271;25247;-59
2023/02/02 08:16:20;;;;;;;11.10;6.10;;;;;;;6.48;54.24;101279.86;105847;1272;1003006;-59
2023/02/02 08:18:49;;;;;;;7.30;5.90;;;;;;;6.41;54.56;101280.16;106056;1273;1003059;-59
2023/02/02 08:21:18;;;;;;;6.90;6.00;;;;;;;6.49;54.38;101278.31;105927;1271;1003675;-59
2023/02/02 08:23:47;;;;;;;10.00;6.50;;;;;;;6.56;54.31;101277.98;105966;1272;1003243;-58
2023/02/02 08:26:17;;;;;;;6.50;5.90;;;;;;;6.60;54.46;101276.95;106771;1272;24357;-58
2023/02/02 08:28:47;;;;;;;6.50;5.60;;;;;;;6.65;54.34;101282.48;106665;1274;24426;-58
2023/02/02 08:31:20;;;;;;;8.00;6.30;;;;;;;6.71;54.33;101276.48;106773;1271;22590;-58
2023/02/02 08:33:49;;;;;;;8.10;6.70;;;;;;;6.78;54.33;101279.59;106734;1272;22543;-58
2023/02/02 08:36:18;;;;;;;8.30;6.50;;;;;;;6.86;54.36;101278.56;106015;1272;1003226;-58
2023/02/02 08:38:47;;;;;;;9.30;6.60;;;;;;;6.94;54.30;101281.34;106664;1274;25539;-59
2023/02/02 08:41:18;;;;;;;10.20;6.80;;;;;;;7.00;53.71;101280.83;106634;1275;25393;-58
2023/02/02 08:43:46;;;;;;;8.40;7.50;;;;;;;7.04;53.71;101280.13;106189;1269;1003583;-58
2023/02/02 08:46:16;;;;;;;10.90;8.90;;;;;;;7.07;54.33;101282.38;107024;1268;25345;-58
2023/02/02 08:48:45;;;;;;;12.60;8.50;;;;;;;7.07;54.36;101283.94;107088;1268;25434;-58
2023/02/02 08:51:15;;;;;;;10.50;8.40;;;;;;;7.07;54.60;101278.23;106808;1273;22654;-58
2023/02/02 08:53:44;;;;;;;13.80;8.30;;;;;;;7.07;54.73;101278.59;106833;1271;22627;-58
2023/02/02 08:56:14;;;;;;;9.00;7.80;;;;;;;7.10;54.97;101275.67;107096;1269;25383;-58
2023/02/02 08:58:44;;;;;;;11.70;8.40;;;;;;;7.16;54.94;101276.19;106300;1268;1002873;-58
2023/02/02 09:01:18;;;;;;;9.60;7.60;;;;;;;7.22;54.64;101272.91;107027;1268;22644;-58
2023/02/02 09:03:46;;;;;;;8.80;7.90;;;;;;;7.29;54.34;101274.30;107033;1268;23885;-58
2023/02/02 09:06:17;;;;;;;8.40;7.00;;;;;;;7.36;54.07;101273.77;106845;1268;25335;-59
2023/02/02 09:08:46;;;;;;;8.60;7.00;;;;;;;7.41;53.94;101267.39;107032;1270;25394;-58
2023/02/02 09:11:16;;;;;;;8.30;6.30;;;;;;;7.46;54.18;101262.02;107038;1253;25505;-59
2023/02/02 09:13:45;;;;;;;7.90;6.30;;;;;;;7.51;54.06;101260.47;106961;1272;22522;-58
2023/02/02 09:16:16;;;;;;;7.50;6.30;;;;;;;7.54;53.90;101256.67;106257;1255;1002863;-58
2023/02/02 09:18:44;;;;;;;6.80;6.00;;;;;;;7.59;53.74;101252.70;107071;1270;22530;-58
2023/02/02 09:21:14;;;;;;;6.80;5.90;;;;;;;7.63;53.51;101249.05;106817;1271;25938;-59
2023/02/02 09:23:43;;;;;;;8.00;5.90;;;;;;;7.69;53.49;101246.11;107135;1268;25337;-59
2023/02/02 09:26:16;;;;;;;6.50;5.60;;;;;;;7.76;53.31;101238.48;107111;1268;22665;-59
2023/02/02 09:28:46;;;;;;;7.30;6.00;;;;;;;7.83;53.26;101240.02;107017;1268;23878;-59
2023/02/02 09:31:15;;;;;;;6.50;5.80;;;;;;;7.89;53.20;101230.33;107061;1269;22524;-59
2023/02/02 09:33:44;;;;;;;7.70;6.10;;;;;;;7.94;53.25;101233.59;106974;1268;25337;-59
2023/02/02 09:36:14;;;;;;;6.80;6.10;;;;;;;7.98;53.08;101231.52;107037;1268;22558;-59
2023/02/02 09:38:42;;;;;;;7.30;6.10;;;;;;;8.01;53.19;101226.83;107040;1275;25356;-59
2023/02/02 09:41:26;;;;;;;8.80;6.60;;;;;;;8.05;53.29;101223.89;106352;1269;1003671;-59
2023/02/02 09:44:13;;;;;;;7.70;6.30;;;;;;;8.07;53.42;101219.56;107126;1268;22543;-59
2023/02/02 09:47:00;;;;;;;9.90;6.80;;;;;;;8.12;53.38;101221.09;107011;1272;25376;-59
2023/02/02 09:49:41;;;;;;;7.80;6.30;;;;;;;8.18;53.40;101220.02;107118;1268;25416;-59
2023/02/02 09:52:16;;;;;;;7.00;5.70;;;;;;;8.25;53.49;101219.33;106803;1269;25407;-59
2023/02/02 09:54:46;;;;;;;8.60;6.40;;;;;;;8.33;53.40;101216.68;106977;1272;25246;-58
2023/02/02 09:57:28;;;;;;;7.10;6.40;;;;;;;8.41;53.42;101216.14;106955;1269;22527;-59
2023/02/02 09:59:56;;;;;;;9.20;6.80;;;;;;;8.48;53.05;101206.77;106996;1272;25371;-58
2023/02/02 10:02:32;;;;;;;9.20;6.50;;;;;;;8.53;52.99;101204.32;106380;1260;1003178;-58
2023/02/02 10:05:08;;;;;;;7.10;6.00;;;;;;;8.57;53.03;101201.35;107033;1268;22521;-58
2023/02/02 10:07:39;;;;;;;8.20;6.20;;;;;;;8.61;52.97;101199.59;106191;1269;1003004;-58
2023/02/02 10:10:24;;;;;;;7.50;6.70;;;;;;;8.65;52.80;101198.52;106235;1272;1003015;-58
2023/02/02 10:12:58;;;;;;;8.70;6.90;;;;;;;8.67;52.82;101198.34;106999;1268;24320;-58
2023/02/02 10:15:49;;;;;;;8.40;6.90;;;;;;;8.69;52.81;101192.79;107107;1268;22646;-58
2023/02/02 10:18:41;;;;;;;6.90;6.20;;;;;;;8.70;52.93;101193.46;107112;1268;25532;-58
2023/02/02 10:21:41;;;;;;;7.30;6.20;;;;;;;8.73;52.95;101190.84;106876;1271;25486;-58
2023/02/02 10:24:23;;;;;;;7.30;6.40;;;;;;;8.76;53.17;101188.92;106453;1269;23855;-59
2023/02/02 10:27:08;;;;;;;6.20;5.60;;;;;;;8.81;53.23;101187.15;106705;1267;22551;-58
2023/02/02 10:29:43;;;;;;;7.10;6.40;;;;;;;8.86;53.22;101181.41;106852;1268;22634;-59
2023/02/02 10:32:29;;;;;;;7.20;6.50;;;;;;;8.91;53.09;101181.04;106934;1271;22638;-58
2023/02/02 10:35:35;;;;;;;6.50;5.90;;;;;;;8.95;53.06;101181.52;106344;1271;1003720;-58
2023/02/02 10:38:15;;;;;;;7.40;6.60;;;;;;;8.98;52.92;101177.33;106326;1268;1003034;-58
2023/02/02 10:41:03;;;;;;;7.20;6.40;;;;;;;9.01;52.93;101173.85;107061;1269;24214;-58
2023/02/02 10:44:00;;;;;;;6.70;5.90;;;;;;;9.06;52.71;101178.13;107040;1268;25454;-58
2023/02/02 10:46:49;;;;;;;7.60;5.90;;;;;;;9.10;52.77;101178.09;106917;1274;25348;-58
2023/02/02 10:49:23;;;;;;;6.60;5.90;;;;;;;9.14;52.81;101179.44;107033;1268;24490;-58
2023/02/02 10:52:16;;;;;;;7.30;5.50;;;;;;;9.20;52.66;101178.51;106344;1268;1003434;-58
2023/02/02 10:54:57;;;;;;;8.60;6.10;;;;;;;9.28;52.73;101175.34;107175;1268;22554;-58
2023/02/02 10:57:33;;;;;;;8.40;6.00;;;;;;;9.33;52.81;101173.20;106234;1269;1002980;-59
2023/02/02 11:00:09;;;;;;;9.40;6.90;;;;;;;9.39;52.83;101168.98;106219;1275;1016013;-58
2023/02/02 11:02:38;;;;;;;7.50;6.30;;;;;;;9.43;53.03;101163.41;106784;1269;22534;-58
2023/02/02 11:07:59;;;;;;;7.00;6.30;;;;;;;9.51;52.85;101164.52;107059;1268;25358;-58
2023/02/02 11:10:30;;;;;;;8.50;6.80;;;;;;;9.53;52.56;101165.02;106930;1272;25385;-58
2023/02/02 11:12:59;;;;;;;8.20;7.00;;;;;;;9.54;52.52;101166.39;106974;1272;22758;-58
2023/02/02 11:15:29;;;;;;;7.20;6.10;;;;;;;9.54;52.67;101164.30;107043;1268;22537;-58
2023/02/02 11:18:21;;;;;;;;;;;;;;;9.55;52.77;101164.30;107012;1272;25421;-58
2023/02/02 11:20:49;;;;;;;7.80;6.30;;;;;;;9.54;52.85;101157.73;106552;1273;25407;-58
2023/02/02 11:23:18;;;;;;;7.30;6.20;;;;;;;9.53;52.75;101164.85;105837;1273;1003856;-58
2023/02/02 11:25:57;;;;;;;8.20;6.90;;;;;;;9.53;52.59;101164.66;105438;1278;1002546;-58
2023/02/02 11:28:29;;;;;;;8.00;6.40;;;;;;;9.56;52.48;101167.39;106294;1273;24230;-58
2023/02/02 11:30:58;;;;;;;10.00;7.40;;;;;;;9.59;52.25;101170.15;106136;1275;25481;-58
2023/02/02 11:33:31;;;;;;;7.80;6.70;;;;;;;9.61;52.28;101170.11;106055;1281;25354;-60
2023/02/02 11:36:21;;;;;;;8.50;6.60;;;;;;;9.63;52.06;101170.43;106232;1278;25349;-58
2023/02/02 11:39:13;;;;;;;8.00;7.20;;;;;;;9.65;51.78;101170.24;106606;1273;24402;-59
2023/02/02 11:41:42;;;;;;;7.60;6.80;;;;;;;9.64;51.90;101173.02;106646;1273;25294;-58
2023/02/02 11:44:27;;;;;;;8.90;7.00;;;;;;;9.63;51.89;101169.05;106392;1273;25342;-59
2023/02/02 11:46:56;;;;;;;8.40;6.50;;;;;;;9.63;52.14;101167.84;106665;1276;22550;-58